sensor_id;sensor_type;location;lat;lon;timestamp;pressure;altitude;pressure_sealevel;temperature;humidity
68075;BME280;54864;52.002;5.468;2022-10-26T00:00:11;101278.63;;;13.10;73.18
68075;BME280;54864;52.002;5.468;2022-10-26T00:01:14;101276.63;;;13.15;73.42
68075;BME280;54864;52.002;5.468;2022-10-26T00:02:17;101277.47;;;13.15;73.26
68075;BME280;54864;52.002;5.468;2022-10-26T00:03:18;101277.44;;;13.17;73.11
68075;BME280;54864;52.002;5.468;2022-10-26T00:04:20;101269.75;;;13.11;73.16
68075;BME280;54864;52.002;5.468;2022-10-26T00:05:20;101270.97;;;13.22;72.97
68075;BME280;54864;52.002;5.468;2022-10-26T00:06:24;101274.81;;;13.15;73.07
68075;BME280;54864;52.002;5.468;2022-10-26T00:07:29;101277.28;;;13.20;72.91
68075;BME280;54864;52.002;5.468;2022-10-26T00:08:31;101274.34;;;13.26;73.12
68075;BME280;54864;52.002;5.468;2022-10-26T00:09:32;101269.75;;;13.29;72.66
68075;BME280;54864;52.002;5.468;2022-10-26T00:10:34;101274.25;;;13.27;72.74
68075;BME280;54864;52.002;5.468;2022-10-26T00:11:36;101274.19;;;13.29;72.52
68075;BME280;54864;52.002;5.468;2022-10-26T00:12:38;101267.09;;;13.29;72.74
68075;BME280;54864;52.002;5.468;2022-10-26T00:13:40;101274.03;;;13.32;72.57
68075;BME280;54864;52.002;5.468;2022-10-26T00:14:42;101260.78;;;13.32;72.71
68075;BME280;54864;52.002;5.468;2022-10-26T00:15:42;101255.25;;;13.37;72.56
68075;BME280;54864;52.002;5.468;2022-10-26T00:16:44;101265.63;;;13.41;72.47
68075;BME280;54864;52.002;5.468;2022-10-26T00:17:46;101260.47;;;13.38;73.01
68075;BME280;54864;52.002;5.468;2022-10-26T00:18:48;101253.94;;;13.45;72.83
68075;BME280;54864;52.002;5.468;2022-10-26T00:19:49;101254.63;;;13.31;73.24
68075;BME280;54864;52.002;5.468;2022-10-26T00:20:51;101254.25;;;13.39;73.00
68075;BME280;54864;52.002;5.468;2022-10-26T00:21:52;101249.09;;;13.36;73.11
68075;BME280;54864;52.002;5.468;2022-10-26T00:22:55;101243.34;;;13.28;73.58
68075;BME280;54864;52.002;5.468;2022-10-26T00:23:57;101256.97;;;13.38;73.43
68075;BME280;54864;52.002;5.468;2022-10-26T00:24:59;101253.25;;;13.42;73.09
68075;BME280;54864;52.002;5.468;2022-10-26T00:26:00;101249.44;;;13.47;73.05
68075;BME280;54864;52.002;5.468;2022-10-26T00:27:03;101245.91;;;13.47;73.35
68075;BME280;54864;52.002;5.468;2022-10-26T00:28:04;101245.91;;;13.47;73.33
68075;BME280;54864;52.002;5.468;2022-10-26T00:29:06;101246.00;;;13.45;73.12
68075;BME280;54864;52.002;5.468;2022-10-26T00:30:08;101250.34;;;13.46;73.16
68075;BME280;54864;52.002;5.468;2022-10-26T00:31:13;101245.69;;;13.51;73.02
68075;BME280;54864;52.002;5.468;2022-10-26T00:32:15;101246.63;;;13.50;72.76
68075;BME280;54864;52.002;5.468;2022-10-26T00:33:18;101248.97;;;13.56;72.51
68075;BME280;54864;52.002;5.468;2022-10-26T00:34:19;101253.56;;;13.53;72.47
68075;BME280;54864;52.002;5.468;2022-10-26T00:35:21;101251.53;;;13.58;72.38
68075;BME280;54864;52.002;5.468;2022-10-26T00:36:22;101241.09;;;13.55;72.99
68075;BME280;54864;52.002;5.468;2022-10-26T00:37:25;101246.38;;;13.55;72.98
68075;BME280;54864;52.002;5.468;2022-10-26T00:38:27;101246.00;;;13.62;72.81
68075;BME280;54864;52.002;5.468;2022-10-26T00:39:29;101243.22;;;13.66;72.70
68075;BME280;54864;52.002;5.468;2022-10-26T00:40:30;101242.34;;;13.65;72.67
68075;BME280;54864;52.002;5.468;2022-10-26T00:41:33;101244.06;;;13.66;72.27
68075;BME280;54864;52.002;5.468;2022-10-26T00:42:34;101242.50;;;13.62;72.67
68075;BME280;54864;52.002;5.468;2022-10-26T00:43:38;101246.78;;;13.64;72.65
68075;BME280;54864;52.002;5.468;2022-10-26T00:44:55;101241.47;;;13.64;72.70
68075;BME280;54864;52.002;5.468;2022-10-26T00:46:01;101235.03;;;13.70;72.89
68075;BME280;54864;52.002;5.468;2022-10-26T00:47:08;101235.13;;;13.69;72.58
68075;BME280;54864;52.002;5.468;2022-10-26T00:48:13;101238.78;;;13.66;72.59
68075;BME280;54864;52.002;5.468;2022-10-26T00:49:28;101236.59;;;13.74;72.92
68075;BME280;54864;52.002;5.468;2022-10-26T00:50:32;101237.69;;;13.70;72.44
68075;BME280;54864;52.002;5.468;2022-10-26T00:51:39;101231.28;;;13.74;72.39
68075;BME280;54864;52.002;5.468;2022-10-26T00:52:42;101226.00;;;13.74;72.25
68075;BME280;54864;52.002;5.468;2022-10-26T00:53:45;101238.16;;;13.78;72.54
68075;BME280;54864;52.002;5.468;2022-10-26T00:54:48;101224.88;;;13.78;72.15
68075;BME280;54864;52.002;5.468;2022-10-26T00:55:51;101233.69;;;13.79;72.53
68075;BME280;54864;52.002;5.468;2022-10-26T00:56:54;101224.72;;;13.81;72.10
68075;BME280;54864;52.002;5.468;2022-10-26T00:57:56;101220.13;;;13.85;72.30
68075;BME280;54864;52.002;5.468;2022-10-26T00:59:02;101231.91;;;13.79;72.59
68075;BME280;54864;52.002;5.468;2022-10-26T01:00:07;101231.28;;;13.74;72.63
68075;BME280;54864;52.002;5.468;2022-10-26T01:01:09;101226.44;;;13.65;73.22
68075;BME280;54864;52.002;5.468;2022-10-26T01:02:11;101227.38;;;13.64;73.19
68075;BME280;54864;52.002;5.468;2022-10-26T01:03:13;101225.38;;;13.69;73.18
68075;BME280;54864;52.002;5.468;2022-10-26T01:04:15;101228.63;;;13.74;72.77
68075;BME280;54864;52.002;5.468;2022-10-26T01:05:18;101218.56;;;13.81;72.72
68075;BME280;54864;52.002;5.468;2022-10-26T01:06:20;101223.19;;;13.77;72.69
68075;BME280;54864;52.002;5.468;2022-10-26T01:07:22;101209.84;;;13.79;72.59
68075;BME280;54864;52.002;5.468;2022-10-26T01:08:25;101219.44;;;13.81;72.92
68075;BME280;54864;52.002;5.468;2022-10-26T01:09:31;101214.22;;;13.80;72.96
68075;BME280;54864;52.002;5.468;2022-10-26T01:10:34;101217.03;;;13.77;73.32
68075;BME280;54864;52.002;5.468;2022-10-26T01:11:36;101219.56;;;13.61;74.14
68075;BME280;54864;52.002;5.468;2022-10-26T01:12:37;101223.94;;;13.62;73.72
68075;BME280;54864;52.002;5.468;2022-10-26T01:13:41;101217.03;;;13.77;73.31
68075;BME280;54864;52.002;5.468;2022-10-26T01:14:44;101211.81;;;13.75;73.41
68075;BME280;54864;52.002;5.468;2022-10-26T01:15:50;101211.88;;;13.74;73.62
68075;BME280;54864;52.002;5.468;2022-10-26T01:17:02;101211.72;;;13.77;73.71
68075;BME280;54864;52.002;5.468;2022-10-26T01:18:19;101211.41;;;13.83;72.96
68075;BME280;54864;52.002;5.468;2022-10-26T01:20:11;101207.50;;;13.90;72.96
68075;BME280;54864;52.002;5.468;2022-10-26T01:21:40;101200.78;;;13.83;73.06
68075;BME280;54864;52.002;5.468;2022-10-26T01:22:53;101200.44;;;13.73;73.36
68075;BME280;54864;52.002;5.468;2022-10-26T01:24:12;101196.44;;;13.82;73.21
68075;BME280;54864;52.002;5.468;2022-10-26T01:25:40;101186.41;;;13.71;73.38
68075;BME280;54864;52.002;5.468;2022-10-26T01:27:10;101188.81;;;13.76;73.17
68075;BME280;54864;52.002;5.468;2022-10-26T01:28:39;101189.19;;;13.85;73.31
68075;BME280;54864;52.002;5.468;2022-10-26T01:30:21;101189.94;;;13.87;72.84
68075;BME280;54864;52.002;5.468;2022-10-26T01:31:29;101190.47;;;13.94;72.62
68075;BME280;54864;52.002;5.468;2022-10-26T01:32:41;101180.03;;;13.91;72.82
68075;BME280;54864;52.002;5.468;2022-10-26T01:33:49;101182.53;;;13.94;72.57
68075;BME280;54864;52.002;5.468;2022-10-26T01:35:05;101188.78;;;13.93;72.74
68075;BME280;54864;52.002;5.468;2022-10-26T01:36:22;101187.41;;;14.02;72.04
68075;BME280;54864;52.002;5.468;2022-10-26T01:37:35;101179.47;;;14.02;72.22
68075;BME280;54864;52.002;5.468;2022-10-26T01:38:45;101183.66;;;14.06;71.73
68075;BME280;54864;52.002;5.468;2022-10-26T01:39:58;101182.13;;;14.02;72.31
68075;BME280;54864;52.002;5.468;2022-10-26T01:41:12;101180.66;;;13.96;72.21
68075;BME280;54864;52.002;5.468;2022-10-26T01:42:22;101178.25;;;13.91;72.38
68075;BME280;54864;52.002;5.468;2022-10-26T01:43:29;101177.06;;;13.97;72.40
68075;BME280;54864;52.002;5.468;2022-10-26T01:44:38;101176.97;;;13.99;72.32
68075;BME280;54864;52.002;5.468;2022-10-26T01:45:45;101175.03;;;14.02;71.96
68075;BME280;54864;52.002;5.468;2022-10-26T01:46:51;101172.88;;;14.09;71.93
68075;BME280;54864;52.002;5.468;2022-10-26T01:47:57;101174.84;;;14.05;72.08
68075;BME280;54864;52.002;5.468;2022-10-26T01:49:05;101179.56;;;14.16;71.67
68075;BME280;54864;52.002;5.468;2022-10-26T01:50:10;101171.69;;;14.14;71.90
68075;BME280;54864;52.002;5.468;2022-10-26T01:51:13;101172.81;;;14.10;72.08
68075;BME280;54864;52.002;5.468;2022-10-26T01:52:17;101166.41;;;14.14;71.72
68075;BME280;54864;52.002;5.468;2022-10-26T01:53:19;101166.03;;;14.05;72.25
68075;BME280;54864;52.002;5.468;2022-10-26T01:54:20;101169.13;;;14.13;72.23
68075;BME280;54864;52.002;5.468;2022-10-26T01:55:46;101166.41;;;14.14;72.23
68075;BME280;54864;52.002;5.468;2022-10-26T01:56:51;101174.69;;;14.08;72.06
68075;BME280;54864;52.002;5.468;2022-10-26T01:57:59;101184.34;;;14.09;72.08
68075;BME280;54864;52.002;5.468;2022-10-26T01:59:18;101170.00;;;14.13;71.89
68075;BME280;54864;52.002;5.468;2022-10-26T02:00:23;101170.69;;;14.17;72.06
68075;BME280;54864;52.002;5.468;2022-10-26T02:01:34;101177.78;;;14.16;71.76
68075;BME280;54864;52.002;5.468;2022-10-26T02:02:58;101175.13;;;14.16;71.74
68075;BME280;54864;52.002;5.468;2022-10-26T02:04:11;101176.41;;;14.25;71.55
68075;BME280;54864;52.002;5.468;2022-10-26T02:05:35;101174.53;;;14.11;71.69
68075;BME280;54864;52.002;5.468;2022-10-26T02:06:54;101173.50;;;14.14;71.96
68075;BME280;54864;52.002;5.468;2022-10-26T02:08:20;101173.06;;;14.21;72.07
68075;BME280;54864;52.002;5.468;2022-10-26T02:09:49;101176.31;;;14.11;71.52
68075;BME280;54864;52.002;5.468;2022-10-26T02:11:05;101173.47;;;13.98;72.17
68075;BME280;54864;52.002;5.468;2022-10-26T02:12:21;101174.28;;;13.83;73.48
68075;BME280;54864;52.002;5.468;2022-10-26T02:13:32;101173.63;;;13.95;72.84
68075;BME280;54864;52.002;5.468;2022-10-26T02:14:44;101171.00;;;13.95;72.86
68075;BME280;54864;52.002;5.468;2022-10-26T02:15:53;101172.53;;;13.99;72.61
68075;BME280;54864;52.002;5.468;2022-10-26T02:17:04;101159.97;;;14.03;72.46
68075;BME280;54864;52.002;5.468;2022-10-26T02:18:17;101159.56;;;14.10;72.84
68075;BME280;54864;52.002;5.468;2022-10-26T02:19:33;101163.84;;;14.13;72.29
68075;BME280;54864;52.002;5.468;2022-10-26T02:20:43;101157.56;;;13.98;72.72
68075;BME280;54864;52.002;5.468;2022-10-26T02:21:52;101159.03;;;14.04;72.30
68075;BME280;54864;52.002;5.468;2022-10-26T02:23:01;101157.06;;;14.07;72.33
68075;BME280;54864;52.002;5.468;2022-10-26T02:24:07;101157.75;;;14.11;72.55
68075;BME280;54864;52.002;5.468;2022-10-26T02:25:16;101154.59;;;14.20;72.35
68075;BME280;54864;52.002;5.468;2022-10-26T02:26:22;101157.84;;;14.25;72.23
68075;BME280;54864;52.002;5.468;2022-10-26T02:27:30;101167.13;;;14.34;71.90
68075;BME280;54864;52.002;5.468;2022-10-26T02:28:41;101164.03;;;14.41;71.50
68075;BME280;54864;52.002;5.468;2022-10-26T02:29:47;101168.16;;;14.31;71.71
68075;BME280;54864;52.002;5.468;2022-10-26T02:30:54;101161.19;;;14.28;71.41
68075;BME280;54864;52.002;5.468;2022-10-26T02:32:02;101160.94;;;14.17;72.41
68075;BME280;54864;52.002;5.468;2022-10-26T02:33:06;101155.03;;;14.28;72.10
68075;BME280;54864;52.002;5.468;2022-10-26T02:34:12;101159.09;;;14.35;71.81
68075;BME280;54864;52.002;5.468;2022-10-26T02:35:20;101144.88;;;14.36;72.06
68075;BME280;54864;52.002;5.468;2022-10-26T02:36:28;101153.94;;;14.32;71.96
68075;BME280;54864;52.002;5.468;2022-10-26T02:37:33;101149.94;;;14.41;72.10
68075;BME280;54864;52.002;5.468;2022-10-26T02:38:39;101146.41;;;14.40;71.65
68075;BME280;54864;52.002;5.468;2022-10-26T02:39:42;101142.69;;;14.44;71.71
68075;BME280;54864;52.002;5.468;2022-10-26T02:40:48;101132.47;;;14.37;71.63
68075;BME280;54864;52.002;5.468;2022-10-26T02:41:52;101136.16;;;14.34;71.65
68075;BME280;54864;52.002;5.468;2022-10-26T02:42:59;101130.69;;;14.37;71.50
68075;BME280;54864;52.002;5.468;2022-10-26T02:44:09;101130.59;;;14.39;72.18
68075;BME280;54864;52.002;5.468;2022-10-26T02:45:18;101124.44;;;14.38;72.19
68075;BME280;54864;52.002;5.468;2022-10-26T02:46:23;101128.56;;;14.44;71.82
68075;BME280;54864;52.002;5.468;2022-10-26T02:47:29;101124.78;;;14.48;71.52
68075;BME280;54864;52.002;5.468;2022-10-26T02:48:30;101123.34;;;14.42;71.05
68075;BME280;54864;52.002;5.468;2022-10-26T02:49:32;101128.78;;;14.39;71.77
68075;BME280;54864;52.002;5.468;2022-10-26T02:50:37;101121.47;;;14.44;71.53
68075;BME280;54864;52.002;5.468;2022-10-26T02:51:51;101122.91;;;14.50;71.96
68075;BME280;54864;52.002;5.468;2022-10-26T02:53:05;101124.72;;;14.49;71.61
68075;BME280;54864;52.002;5.468;2022-10-26T02:54:18;101129.66;;;14.55;71.08
68075;BME280;54864;52.002;5.468;2022-10-26T02:55:31;101115.97;;;14.47;71.69
68075;BME280;54864;52.002;5.468;2022-10-26T02:56:44;101129.25;;;14.47;71.71
68075;BME280;54864;52.002;5.468;2022-10-26T02:57:54;101125.38;;;14.53;71.75
68075;BME280;54864;52.002;5.468;2022-10-26T02:59:03;101130.69;;;14.53;71.48
68075;BME280;54864;52.002;5.468;2022-10-26T03:00:08;101130.53;;;14.56;71.60
68075;BME280;54864;52.002;5.468;2022-10-26T03:01:13;101127.69;;;14.59;71.21
68075;BME280;54864;52.002;5.468;2022-10-26T03:02:15;101134.53;;;14.63;71.09
68075;BME280;54864;52.002;5.468;2022-10-26T03:03:19;101133.69;;;14.63;71.14
68075;BME280;54864;52.002;5.468;2022-10-26T03:04:27;101134.03;;;14.56;70.88
68075;BME280;54864;52.002;5.468;2022-10-26T03:05:31;101131.47;;;14.55;70.78
68075;BME280;54864;52.002;5.468;2022-10-26T03:06:33;101134.19;;;14.53;70.82
68075;BME280;54864;52.002;5.468;2022-10-26T03:07:34;101134.97;;;14.55;70.70
68075;BME280;54864;52.002;5.468;2022-10-26T03:08:35;101137.38;;;14.60;70.62
68075;BME280;54864;52.002;5.468;2022-10-26T03:09:37;101136.00;;;14.53;71.10
68075;BME280;54864;52.002;5.468;2022-10-26T03:10:40;101127.50;;;14.62;70.78
68075;BME280;54864;52.002;5.468;2022-10-26T03:11:43;101125.72;;;14.63;70.62
68075;BME280;54864;52.002;5.468;2022-10-26T03:12:44;101131.69;;;14.66;70.24
68075;BME280;54864;52.002;5.468;2022-10-26T03:13:46;101136.41;;;14.61;70.18
68075;BME280;54864;52.002;5.468;2022-10-26T03:14:47;101130.00;;;14.65;70.25
68075;BME280;54864;52.002;5.468;2022-10-26T03:15:49;101126.25;;;14.53;70.49
68075;BME280;54864;52.002;5.468;2022-10-26T03:16:50;101121.78;;;14.54;70.43
68075;BME280;54864;52.002;5.468;2022-10-26T03:17:52;101125.31;;;14.54;70.25
68075;BME280;54864;52.002;5.468;2022-10-26T03:18:54;101124.88;;;14.46;70.83
68075;BME280;54864;52.002;5.468;2022-10-26T03:19:56;101125.81;;;14.45;70.45
68075;BME280;54864;52.002;5.468;2022-10-26T03:20:57;101115.78;;;14.35;70.78
68075;BME280;54864;52.002;5.468;2022-10-26T03:21:58;101119.22;;;14.37;70.78
68075;BME280;54864;52.002;5.468;2022-10-26T03:22:59;101118.53;;;14.33;71.25
68075;BME280;54864;52.002;5.468;2022-10-26T03:24:01;101115.97;;;14.32;71.54
68075;BME280;54864;52.002;5.468;2022-10-26T03:25:03;101114.66;;;14.23;71.61
68075;BME280;54864;52.002;5.468;2022-10-26T03:26:05;101119.69;;;14.12;72.25
68075;BME280;54864;52.002;5.468;2022-10-26T03:27:06;101120.03;;;14.21;71.75
68075;BME280;54864;52.002;5.468;2022-10-26T03:28:08;101113.97;;;14.19;71.83
68075;BME280;54864;52.002;5.468;2022-10-26T03:29:09;101119.19;;;14.21;71.66
68075;BME280;54864;52.002;5.468;2022-10-26T03:30:11;101114.25;;;14.31;71.54
68075;BME280;54864;52.002;5.468;2022-10-26T03:31:12;101119.88;;;14.24;71.27
68075;BME280;54864;52.002;5.468;2022-10-26T03:32:13;101118.44;;;14.35;71.45
68075;BME280;54864;52.002;5.468;2022-10-26T03:33:14;101119.38;;;14.34;71.20
68075;BME280;54864;52.002;5.468;2022-10-26T03:34:18;101110.78;;;14.28;71.11
68075;BME280;54864;52.002;5.468;2022-10-26T03:35:20;101114.94;;;14.34;71.29
68075;BME280;54864;52.002;5.468;2022-10-26T03:36:22;101111.25;;;14.37;70.95
68075;BME280;54864;52.002;5.468;2022-10-26T03:37:24;101109.81;;;14.31;70.98
68075;BME280;54864;52.002;5.468;2022-10-26T03:38:25;101108.78;;;14.34;70.79
68075;BME280;54864;52.002;5.468;2022-10-26T03:39:27;101113.91;;;14.37;70.33
68075;BME280;54864;52.002;5.468;2022-10-26T03:40:27;101115.78;;;14.35;70.47
68075;BME280;54864;52.002;5.468;2022-10-26T03:41:29;101114.59;;;14.40;70.45
68075;BME280;54864;52.002;5.468;2022-10-26T03:42:32;101119.88;;;14.40;70.13
68075;BME280;54864;52.002;5.468;2022-10-26T03:43:34;101112.28;;;14.34;70.01
68075;BME280;54864;52.002;5.468;2022-10-26T03:44:36;101116.47;;;14.38;70.18
68075;BME280;54864;52.002;5.468;2022-10-26T03:45:36;101112.50;;;14.29;70.52
68075;BME280;54864;52.002;5.468;2022-10-26T03:46:38;101104.91;;;14.39;69.97
68075;BME280;54864;52.002;5.468;2022-10-26T03:47:43;101112.34;;;14.17;70.19
68075;BME280;54864;52.002;5.468;2022-10-26T03:48:45;101105.41;;;14.14;71.18
68075;BME280;54864;52.002;5.468;2022-10-26T03:49:48;101105.66;;;14.10;71.02
68075;BME280;54864;52.002;5.468;2022-10-26T03:50:49;101107.28;;;14.12;70.94
68075;BME280;54864;52.002;5.468;2022-10-26T03:51:51;101106.34;;;14.13;71.43
68075;BME280;54864;52.002;5.468;2022-10-26T03:52:52;101106.59;;;14.09;71.30
68075;BME280;54864;52.002;5.468;2022-10-26T03:53:53;101109.44;;;14.06;71.38
68075;BME280;54864;52.002;5.468;2022-10-26T03:54:54;101106.78;;;14.06;71.14
68075;BME280;54864;52.002;5.468;2022-10-26T03:55:56;101102.59;;;14.02;71.45
68075;BME280;54864;52.002;5.468;2022-10-26T03:56:57;101104.47;;;14.00;71.85
68075;BME280;54864;52.002;5.468;2022-10-26T03:57:58;101105.25;;;14.02;71.53
68075;BME280;54864;52.002;5.468;2022-10-26T03:58:59;101103.28;;;14.05;71.28
68075;BME280;54864;52.002;5.468;2022-10-26T04:00:01;101100.63;;;14.05;70.99
68075;BME280;54864;52.002;5.468;2022-10-26T04:01:02;101109.44;;;14.06;71.08
68075;BME280;54864;52.002;5.468;2022-10-26T04:02:07;101100.63;;;14.05;70.78
68075;BME280;54864;52.002;5.468;2022-10-26T04:03:08;101102.50;;;14.03;70.92
68075;BME280;54864;52.002;5.468;2022-10-26T04:04:10;101103.78;;;13.96;71.05
68075;BME280;54864;52.002;5.468;2022-10-26T04:05:13;101108.13;;;13.97;71.22
68075;BME280;54864;52.002;5.468;2022-10-26T04:06:15;101105.75;;;13.92;71.01
68075;BME280;54864;52.002;5.468;2022-10-26T04:07:16;101117.63;;;14.01;71.40
68075;BME280;54864;52.002;5.468;2022-10-26T04:08:18;101109.34;;;13.91;71.14
68075;BME280;54864;52.002;5.468;2022-10-26T04:09:19;101101.72;;;14.01;70.84
68075;BME280;54864;52.002;5.468;2022-10-26T04:10:21;101096.75;;;13.95;71.31
68075;BME280;54864;52.002;5.468;2022-10-26T04:11:22;101106.09;;;14.02;71.18
68075;BME280;54864;52.002;5.468;2022-10-26T04:12:24;101102.84;;;13.97;71.20
68075;BME280;54864;52.002;5.468;2022-10-26T04:13:25;101105.13;;;13.87;71.88
68075;BME280;54864;52.002;5.468;2022-10-26T04:14:27;101109.25;;;13.93;71.68
68075;BME280;54864;52.002;5.468;2022-10-26T04:15:28;101106.75;;;13.90;71.73
68075;BME280;54864;52.002;5.468;2022-10-26T04:16:30;101103.69;;;13.82;71.74
68075;BME280;54864;52.002;5.468;2022-10-26T04:17:31;101111.03;;;13.77;72.72
68075;BME280;54864;52.002;5.468;2022-10-26T04:18:33;101107.94;;;13.84;72.40
68075;BME280;54864;52.002;5.468;2022-10-26T04:19:34;101105.38;;;13.83;72.69
68075;BME280;54864;52.002;5.468;2022-10-26T04:20:37;101109.41;;;13.90;72.39
68075;BME280;54864;52.002;5.468;2022-10-26T04:21:41;101112.22;;;13.87;72.67
68075;BME280;54864;52.002;5.468;2022-10-26T04:22:42;101106.25;;;13.83;72.77
68075;BME280;54864;52.002;5.468;2022-10-26T04:23:43;101100.34;;;13.94;72.82
68075;BME280;54864;52.002;5.468;2022-10-26T04:24:45;101102.41;;;13.89;72.37
68075;BME280;54864;52.002;5.468;2022-10-26T04:25:46;101097.28;;;13.86;72.59
68075;BME280;54864;52.002;5.468;2022-10-26T04:26:48;101097.72;;;13.94;72.38
68075;BME280;54864;52.002;5.468;2022-10-26T04:27:49;101102.66;;;14.00;72.22
68075;BME280;54864;52.002;5.468;2022-10-26T04:28:51;101095.47;;;14.02;72.15
68075;BME280;54864;52.002;5.468;2022-10-26T04:29:51;101094.53;;;14.03;72.60
68075;BME280;54864;52.002;5.468;2022-10-26T04:30:53;101098.22;;;14.01;72.36
68075;BME280;54864;52.002;5.468;2022-10-26T04:31:54;101104.81;;;14.09;72.39
68075;BME280;54864;52.002;5.468;2022-10-26T04:32:56;101098.41;;;14.13;72.11
68075;BME280;54864;52.002;5.468;2022-10-26T04:33:57;101102.66;;;14.16;72.22
68075;BME280;54864;52.002;5.468;2022-10-26T04:34:58;101097.47;;;14.14;72.06
68075;BME280;54864;52.002;5.468;2022-10-26T04:36:00;101110.13;;;14.09;72.38
68075;BME280;54864;52.002;5.468;2022-10-26T04:37:02;101105.75;;;14.08;72.54
68075;BME280;54864;52.002;5.468;2022-10-26T04:38:04;101105.31;;;14.00;73.02
68075;BME280;54864;52.002;5.468;2022-10-26T04:39:07;101099.00;;;14.03;73.05
68075;BME280;54864;52.002;5.468;2022-10-26T04:40:09;101092.75;;;14.04;73.47
68075;BME280;54864;52.002;5.468;2022-10-26T04:41:11;101098.22;;;14.01;73.23
68075;BME280;54864;52.002;5.468;2022-10-26T04:42:12;101090.09;;;14.04;72.92
68075;BME280;54864;52.002;5.468;2022-10-26T04:43:13;101084.38;;;14.11;72.48
68075;BME280;54864;52.002;5.468;2022-10-26T04:44:14;101097.47;;;14.14;72.66
68075;BME280;54864;52.002;5.468;2022-10-26T04:45:16;101093.59;;;14.20;72.66
68075;BME280;54864;52.002;5.468;2022-10-26T04:46:17;101093.34;;;14.24;72.40
68075;BME280;54864;52.002;5.468;2022-10-26T04:47:19;101089.19;;;14.36;71.85
68075;BME280;54864;52.002;5.468;2022-10-26T04:48:20;101094.41;;;14.38;71.63
68075;BME280;54864;52.002;5.468;2022-10-26T04:49:22;101087.13;;;14.41;71.74
68075;BME280;54864;52.002;5.468;2022-10-26T04:50:23;101095.25;;;14.38;71.52
68075;BME280;54864;52.002;5.468;2022-10-26T04:51:26;101086.59;;;14.35;71.64
68075;BME280;54864;52.002;5.468;2022-10-26T04:52:27;101081.78;;;14.25;71.86
68075;BME280;54864;52.002;5.468;2022-10-26T04:53:29;101085.13;;;14.29;72.16
68075;BME280;54864;52.002;5.468;2022-10-26T04:54:30;101082.56;;;14.27;72.23
68075;BME280;54864;52.002;5.468;2022-10-26T04:55:32;101085.31;;;14.26;72.32
68075;BME280;54864;52.002;5.468;2022-10-26T04:56:33;101086.50;;;14.20;72.56
68075;BME280;54864;52.002;5.468;2022-10-26T04:57:35;101082.81;;;14.23;72.31
68075;BME280;54864;52.002;5.468;2022-10-26T04:58:36;101084.38;;;14.27;72.21
68075;BME280;54864;52.002;5.468;2022-10-26T04:59:37;101082.16;;;14.35;72.12
68075;BME280;54864;52.002;5.468;2022-10-26T05:00:38;101082.16;;;14.35;72.13
68075;BME280;54864;52.002;5.468;2022-10-26T05:01:40;101081.81;;;14.41;71.78
68075;BME280;54864;52.002;5.468;2022-10-26T05:02:41;101084.41;;;14.43;71.72
68075;BME280;54864;52.002;5.468;2022-10-26T05:03:43;101087.56;;;14.49;71.58
68075;BME280;54864;52.002;5.468;2022-10-26T05:04:43;101078.31;;;14.41;71.35
68075;BME280;54864;52.002;5.468;2022-10-26T05:05:45;101085.00;;;14.48;71.46
68075;BME280;54864;52.002;5.468;2022-10-26T05:06:51;101086.44;;;14.53;71.24
68075;BME280;54864;52.002;5.468;2022-10-26T05:07:53;101091.84;;;14.52;71.26
68075;BME280;54864;52.002;5.468;2022-10-26T05:08:56;101093.47;;;14.54;71.44
68075;BME280;54864;52.002;5.468;2022-10-26T05:09:57;101076.94;;;14.49;71.38
68075;BME280;54864;52.002;5.468;2022-10-26T05:10:58;101086.34;;;14.55;71.23
68075;BME280;54864;52.002;5.468;2022-10-26T05:12:00;101086.53;;;14.52;71.13
68075;BME280;54864;52.002;5.468;2022-10-26T05:13:01;101082.66;;;14.57;71.32
68075;BME280;54864;52.002;5.468;2022-10-26T05:14:03;101085.41;;;14.56;70.95
68075;BME280;54864;52.002;5.468;2022-10-26T05:15:05;101088.91;;;14.56;71.04
68075;BME280;54864;52.002;5.468;2022-10-26T05:16:07;101087.97;;;14.57;71.07
68075;BME280;54864;52.002;5.468;2022-10-26T05:17:08;101092.44;;;14.57;70.96
68075;BME280;54864;52.002;5.468;2022-10-26T05:18:10;101095.84;;;14.59;71.24
68075;BME280;54864;52.002;5.468;2022-10-26T05:19:14;101092.75;;;14.67;70.96
68075;BME280;54864;52.002;5.468;2022-10-26T05:20:14;101096.72;;;14.59;70.95
68075;BME280;54864;52.002;5.468;2022-10-26T05:21:16;101099.09;;;14.64;70.78
68075;BME280;54864;52.002;5.468;2022-10-26T05:22:20;101096.09;;;14.70;70.52
68075;BME280;54864;52.002;5.468;2022-10-26T05:23:22;101092.75;;;14.67;70.60
68075;BME280;54864;52.002;5.468;2022-10-26T05:24:23;101096.25;;;14.67;70.65
68075;BME280;54864;52.002;5.468;2022-10-26T05:25:25;101097.75;;;14.57;70.74
68075;BME280;54864;52.002;5.468;2022-10-26T05:26:26;101104.50;;;14.63;70.52
68075;BME280;54864;52.002;5.468;2022-10-26T05:27:28;101095.69;;;14.62;70.81
68075;BME280;54864;52.002;5.468;2022-10-26T05:28:29;101099.28;;;14.61;70.92
68075;BME280;54864;52.002;5.468;2022-10-26T05:29:31;101099.97;;;14.49;70.88
68075;BME280;54864;52.002;5.468;2022-10-26T05:30:33;101105.03;;;14.53;71.51
68075;BME280;54864;52.002;5.468;2022-10-26T05:31:33;101107.66;;;14.53;71.21
68075;BME280;54864;52.002;5.468;2022-10-26T05:32:35;101110.75;;;14.46;71.33
68075;BME280;54864;52.002;5.468;2022-10-26T05:33:37;101108.28;;;14.43;71.35
68075;BME280;54864;52.002;5.468;2022-10-26T05:34:38;101104.16;;;14.53;70.97
68075;BME280;54864;52.002;5.468;2022-10-26T05:35:40;101105.88;;;14.54;70.76
68075;BME280;54864;52.002;5.468;2022-10-26T05:36:41;101108.53;;;14.54;70.83
68075;BME280;54864;52.002;5.468;2022-10-26T05:37:44;101108.78;;;14.49;70.93
68075;BME280;54864;52.002;5.468;2022-10-26T05:38:45;101101.78;;;14.48;71.04